createdAt,value
2023-01-27T04:54:30.765Z,51.98
2023-01-27T04:55:30.748Z,34.86
2023-01-27T04:56:30.739Z,30.33
2023-01-27T04:57:30.745Z,27.43
2023-01-27T04:58:30.758Z,41.04
2023-01-27T04:59:30.769Z,65.29
2023-01-27T05:00:30.796Z,67.70
2023-01-27T05:01:30.795Z,44.14
2023-01-27T05:02:30.781Z,31.22
2023-01-27T05:03:30.779Z,31.98
2023-01-27T05:04:30.772Z,36.90
2023-01-27T05:05:30.795Z,49.35
2023-01-27T05:06:30.784Z,76.57
2023-01-27T05:07:32.236Z,73.54
2023-01-27T05:08:30.789Z,52.52
2023-01-27T05:09:30.793Z,45.62
2023-01-27T05:10:30.791Z,43.11
2023-01-27T05:11:30.897Z,40.00
2023-01-27T05:12:30.812Z,68.03
2023-01-27T05:13:30.790Z,86.45
2023-01-27T05:14:30.795Z,66.00
2023-01-27T05:15:30.848Z,42.26
2023-01-27T05:16:30.844Z,31.27
2023-01-27T05:17:30.806Z,42.36
2023-01-27T05:18:30.803Z,41.63
2023-01-27T05:19:30.795Z,76.63
2023-01-27T05:20:30.806Z,87.71
2023-01-27T05:21:30.838Z,73.15
2023-01-27T05:22:30.803Z,52.64
2023-01-27T05:23:30.817Z,44.16
2023-01-27T05:24:30.878Z,42.72
2023-01-27T05:25:30.831Z,47.16
2023-01-27T05:26:30.797Z,77.19
2023-01-27T05:27:30.795Z,96.34
2023-01-27T05:28:30.786Z,72.89
2023-01-27T05:29:30.790Z,48.17
2023-01-27T05:30:30.826Z,41.33
2023-01-27T05:31:30.898Z,44.35
2023-01-27T05:32:30.794Z,51.85
2023-01-27T05:33:30.837Z,85.72
2023-01-27T05:34:30.791Z,88.00
2023-01-27T05:35:30.821Z,69.13
2023-01-27T05:36:30.805Z,53.35
2023-01-27T05:37:30.802Z,44.81
2023-01-27T05:38:30.810Z,52.41
2023-01-27T05:39:30.814Z,63.03
2023-01-27T05:40:30.815Z,91.57
2023-01-27T05:41:30.792Z,95.32
2023-01-27T05:42:30.795Z,64.97
2023-01-27T05:43:30.804Z,49.07
2023-01-27T05:44:30.812Z,53.09
2023-01-27T05:45:30.810Z,56.80
2023-01-27T05:46:30.876Z,67.09
2023-01-27T05:47:30.802Z,88.26
2023-01-27T05:48:30.830Z,85.38
2023-01-27T05:49:30.841Z,71.92
2023-01-27T05:50:30.801Z,54.43
2023-01-27T05:51:30.821Z,57.59
2023-01-27T05:52:30.819Z,60.16
2023-01-27T05:53:30.847Z,82.36
2023-01-27T05:54:30.845Z,101.67
2023-01-27T05:55:30.829Z,89.07
2023-01-27T05:56:30.836Z,71.02
2023-01-27T05:57:30.830Z,64.10
2023-01-27T05:58:30.837Z,65.45
2023-01-27T05:59:30.834Z,62.66
2023-01-27T06:00:30.860Z,94.43
2023-01-27T06:01:30.897Z,111.31
2023-01-27T06:02:30.882Z,92.10
2023-01-27T06:03:30.845Z,71.26
2023-01-27T06:04:30.828Z,69.78
2023-01-27T06:05:30.853Z,67.00
2023-01-27T06:06:30.836Z,75.51
2023-01-27T06:07:30.830Z,100.63
2023-01-27T06:08:30.853Z,111.34
2023-01-27T06:09:30.890Z,99.62
2023-01-27T06:10:30.862Z,79.58
2023-01-27T06:11:30.866Z,99.93
2023-01-27T06:12:30.870Z,108.92
2023-01-27T06:13:30.878Z,118.26
2023-01-27T06:14:30.888Z,138.41
2023-01-27T06:15:30.904Z,164.63
2023-01-27T06:16:30.973Z,184.40
2023-01-27T06:17:30.905Z,190.17
2023-01-27T06:18:30.917Z,210.41
2023-01-27T06:19:30.907Z,208.14
2023-01-27T06:20:30.886Z,215.48
2023-01-27T06:21:30.881Z,219.26
2023-01-27T06:23:30.904Z,228.53
2023-01-27T06:24:30.948Z,231.50
2023-01-27T06:25:30.885Z,234.08
2023-01-27T06:26:30.867Z,239.75
2023-01-27T06:27:30.878Z,244.46
2023-01-27T06:28:30.874Z,245.15
2023-01-27T06:29:30.854Z,248.58
2023-01-27T06:30:30.882Z,248.68
2023-01-27T06:31:30.899Z,249.55
2023-01-27T06:32:30.838Z,249.35
2023-01-27T06:33:30.838Z,253.50
2023-01-27T06:34:30.881Z,263.06
2023-01-27T06:35:30.837Z,274.56
2023-01-27T06:36:30.819Z,295.46
2023-01-27T06:37:30.833Z,248.59
2023-01-27T06:38:30.820Z,248.14
2023-01-27T06:39:30.847Z,248.88
2023-01-27T06:40:30.843Z,249.03
2023-01-27T06:41:30.808Z,250.00
2023-01-27T06:42:30.781Z,250.00
2023-01-27T06:43:30.783Z,245.73
2023-01-27T06:44:30.780Z,238.90
2023-01-27T06:45:30.777Z,231.05
2023-01-27T06:46:30.867Z,238.07
2023-01-27T06:47:30.753Z,240.63
2023-01-27T06:48:30.737Z,242.27
2023-01-27T06:49:30.752Z,247.31
2023-01-27T06:50:30.749Z,245.74
2023-01-27T06:51:30.716Z,242.87
2023-01-27T06:52:30.720Z,245.42
2023-01-27T06:53:30.687Z,250.54
2023-01-27T06:54:30.707Z,243.58
2023-01-27T06:55:30.674Z,247.01
2023-01-27T06:56:30.674Z,246.55
2023-01-27T06:57:30.657Z,249.06
2023-01-27T06:58:30.668Z,247.24
2023-01-27T06:59:30.660Z,246.40
2023-01-27T07:00:30.732Z,243.58
2023-01-27T07:01:30.674Z,249.18
2023-01-27T07:02:30.667Z,249.28
2023-01-27T07:03:30.595Z,249.49
2023-01-27T07:04:30.607Z,249.90
2023-01-27T07:05:30.587Z,250.97
2023-01-27T07:06:30.548Z,254.80
2023-01-27T07:07:30.559Z,259.15
2023-01-27T07:08:30.529Z,251.04
2023-01-27T07:09:35.395Z,249.72
2023-01-27T07:10:31.499Z,249.90
2023-01-27T07:11:30.541Z,250.47
2023-01-27T07:12:30.504Z,250.16
2023-01-27T07:13:30.443Z,252.01
2023-01-27T07:14:30.450Z,254.73
2023-01-27T07:15:30.444Z,246.52
2023-01-27T07:16:30.455Z,244.75
2023-01-27T07:17:30.419Z,244.81
2023-01-27T07:18:30.419Z,246.53
2023-01-27T07:19:30.398Z,245.08
2023-01-27T07:20:30.388Z,247.61
2023-01-27T07:21:30.370Z,246.71
2023-01-27T07:22:30.368Z,249.97
2023-01-27T07:23:30.393Z,248.63
2023-01-27T07:24:30.372Z,245.23
2023-01-27T07:25:30.289Z,246.83
2023-01-27T07:26:30.299Z,245.67
2023-01-27T07:27:30.299Z,247.30
2023-01-27T07:28:30.275Z,248.11
2023-01-27T07:29:30.256Z,247.62
2023-01-27T07:30:30.364Z,248.10
2023-01-27T07:31:30.320Z,248.17
2023-01-27T07:32:30.208Z,248.59
2023-01-27T07:33:30.214Z,248.76
2023-01-27T07:34:30.241Z,249.09
2023-01-27T07:35:30.198Z,247.30
2023-01-27T07:36:30.160Z,247.32
2023-01-27T07:37:30.146Z,247.15
2023-01-27T07:38:30.143Z,249.43
2023-01-27T07:39:30.109Z,249.07
2023-01-27T07:40:30.111Z,247.04
2023-01-27T07:41:30.079Z,250.00
2023-01-27T07:42:30.128Z,247.95
2023-01-27T07:43:30.030Z,244.30
2023-01-27T07:44:30.014Z,241.71
2023-01-27T07:45:30.099Z,238.92
2023-01-27T07:46:30.000Z,210.23
2023-01-27T07:47:29.978Z,197.81
2023-01-27T07:48:29.961Z,218.18
2023-01-27T07:49:29.941Z,214.37
2023-01-27T07:50:29.990Z,220.33
2023-01-27T07:51:29.908Z,217.70
2023-01-27T07:52:29.902Z,218.65
2023-01-27T07:53:29.910Z,222.87
2023-01-27T07:54:29.928Z,220.00
2023-01-27T07:55:29.891Z,221.41
2023-01-27T07:56:29.845Z,220.42
2023-01-27T07:57:29.866Z,219.17
2023-01-27T07:58:29.833Z,220.41
2023-01-27T07:59:29.811Z,237.10
2023-01-27T08:00:29.862Z,238.76
2023-01-27T08:01:29.774Z,272.43
2023-01-27T08:02:29.743Z,245.52
2023-01-27T08:03:29.855Z,256.05
2023-01-27T08:04:31.639Z,238.94
2023-01-27T08:05:30.790Z,232.52
2023-01-27T08:06:29.684Z,247.56
2023-01-27T08:07:29.648Z,259.77
2023-01-27T08:08:29.635Z,249.10
2023-01-27T08:09:29.620Z,228.55
2023-01-27T08:10:29.630Z,217.22
2023-01-27T08:11:29.566Z,269.33
2023-01-27T08:12:29.552Z,230.72
2023-01-27T08:13:29.555Z,214.75
2023-01-27T08:14:29.529Z,208.53
2023-01-27T08:15:29.528Z,206.21
2023-01-27T08:16:29.524Z,202.41
2023-01-27T08:17:29.467Z,202.96
2023-01-27T08:18:29.440Z,202.37
2023-01-27T08:19:29.463Z,202.60
2023-01-27T08:20:29.444Z,204.05
2023-01-27T08:21:29.428Z,203.23
2023-01-27T08:22:29.377Z,203.37
2023-01-27T08:23:29.370Z,204.19
2023-01-27T08:24:29.404Z,204.29
2023-01-27T08:25:29.319Z,204.28
2023-01-27T08:26:29.291Z,202.82
2023-01-27T08:27:29.279Z,203.37
2023-01-27T08:28:29.304Z,202.99
2023-01-27T08:29:29.228Z,202.87
2023-01-27T08:30:29.266Z,204.90
2023-01-27T08:31:29.236Z,203.58
2023-01-27T08:32:29.215Z,203.88
2023-01-27T08:33:29.182Z,205.82
2023-01-27T08:34:29.139Z,205.60
2023-01-27T08:35:29.174Z,205.35
2023-01-27T08:36:29.114Z,206.21
2023-01-27T08:37:29.085Z,205.95
2023-01-27T08:38:29.081Z,205.55
2023-01-27T08:39:29.057Z,202.18
2023-01-27T08:40:29.068Z,202.74
2023-01-27T08:41:29.031Z,203.45
2023-01-27T08:42:29.046Z,200.35
2023-01-27T08:43:28.998Z,197.64
2023-01-27T08:44:29.005Z,198.18
2023-01-27T08:45:28.951Z,193.38
2023-01-27T08:46:29.011Z,188.87
2023-01-27T08:47:28.976Z,189.80
2023-01-27T08:48:28.924Z,186.75
2023-01-27T08:49:28.885Z,186.26
2023-01-27T08:50:28.867Z,179.46
2023-01-27T08:51:28.940Z,179.21
2023-01-27T08:52:28.840Z,175.59
2023-01-27T08:53:28.831Z,178.70
2023-01-27T08:54:28.817Z,172.87
2023-01-27T08:55:29.841Z,170.33
2023-01-27T08:56:28.798Z,167.03
2023-01-27T08:57:28.774Z,163.93
2023-01-27T08:58:28.773Z,160.79
2023-01-27T08:59:28.774Z,163.68
2023-01-27T09:00:28.720Z,164.32
2023-01-27T09:01:28.750Z,157.48
2023-01-27T09:02:28.690Z,153.07
2023-01-27T09:03:28.708Z,146.60
2023-01-27T09:04:28.685Z,155.55
2023-01-27T09:05:28.640Z,151.21
2023-01-27T09:06:28.648Z,145.79
2023-01-27T09:07:28.618Z,147.27
2023-01-27T09:08:28.647Z,146.76
2023-01-27T09:09:28.590Z,135.34
2023-01-27T09:10:28.591Z,138.22
2023-01-27T09:11:28.596Z,144.03
2023-01-27T09:12:28.570Z,141.30
2023-01-27T09:13:28.592Z,139.02
2023-01-27T09:14:28.557Z,140.27
2023-01-27T10:08:20.885Z,30.24
2023-01-27T10:09:20.817Z,29.97
2023-01-27T10:10:20.836Z,24.63
2023-01-27T10:11:20.754Z,26.92
2023-01-27T10:12:20.707Z,24.87
2023-01-27T10:13:20.677Z,31.81
2023-01-27T10:14:20.678Z,31.33
2023-01-27T10:15:20.599Z,30.08
2023-01-27T10:16:20.621Z,33.82
2023-01-27T10:17:20.576Z,30.51
2023-01-27T10:18:20.519Z,25.00
2023-01-27T10:19:20.506Z,25.12
2023-01-27T10:20:20.570Z,26.06
2023-01-27T10:21:20.400Z,27.50
2023-01-27T10:22:20.502Z,27.75
2023-01-27T10:23:20.328Z,29.67
2023-01-27T10:24:20.414Z,29.02
2023-01-27T10:25:20.266Z,42.79
2023-01-27T10:26:20.239Z,48.46
2023-01-27T10:27:20.262Z,59.68
2023-01-27T10:28:20.351Z,58.43
2023-01-27T10:29:20.236Z,58.90
2023-01-27T10:30:20.128Z,65.75
2023-01-27T10:31:20.181Z,75.99
2023-01-27T10:32:20.061Z,77.88
2023-01-27T10:33:20.047Z,78.51
2023-01-27T10:34:19.952Z,78.97
2023-01-27T10:35:19.915Z,82.13
2023-01-27T10:36:19.909Z,82.69
2023-01-27T10:37:19.941Z,83.96
2023-01-27T10:38:20.135Z,79.58
2023-01-27T10:39:19.812Z,86.72
2023-01-27T10:40:19.768Z,91.87
2023-01-27T10:41:19.724Z,96.49
2023-01-27T10:42:19.696Z,95.06
2023-01-27T10:43:19.751Z,96.61
2023-01-27T10:44:19.680Z,104.49
2023-01-27T10:45:19.629Z,88.77
2023-01-27T10:46:19.571Z,98.15
2023-01-27T10:47:19.752Z,257.22
2023-01-27T10:48:19.556Z,79.81
2023-01-27T10:49:21.560Z,35.56
2023-01-27T10:50:19.594Z,24.06
2023-01-27T10:51:19.426Z,18.86
2023-01-27T10:52:19.452Z,56.69
2023-01-27T10:53:19.812Z,70.41
2023-01-27T10:54:19.377Z,60.26
2023-01-27T10:55:19.382Z,34.40
2023-01-27T10:56:19.340Z,1.66
2023-01-27T10:57:19.469Z,21.01
2023-01-27T10:58:19.825Z,25.00
2023-01-27T10:59:19.342Z,24.52
2023-01-27T11:00:46.518Z,35.37
2023-01-27T11:02:19.809Z,36.95
2023-01-27T11:03:19.294Z,45.06
2023-01-27T11:04:19.214Z,62.93
2023-01-27T11:05:19.672Z,80.15
2023-01-27T11:06:19.133Z,111.73
2023-01-27T11:07:19.185Z,130.61
2023-01-27T11:08:19.147Z,148.44
2023-01-27T11:09:19.065Z,260.75
2023-01-27T11:10:19.014Z,221.85
2023-01-27T11:11:19.037Z,166.99
2023-01-27T11:12:18.963Z,159.03
2023-01-27T11:15:18.924Z,158.16
2023-01-27T11:16:19.301Z,164.53
2023-01-27T11:17:18.802Z,164.31
2023-01-27T11:18:18.803Z,170.31
2023-01-27T11:19:18.737Z,167.15
2023-01-27T11:20:18.673Z,159.65
2023-01-27T11:21:18.672Z,163.02
2023-01-27T11:22:18.615Z,170.43
2023-01-27T11:23:18.646Z,168.18
2023-01-27T11:24:18.602Z,174.34
2023-01-27T11:25:18.522Z,174.47
2023-01-27T11:26:18.460Z,174.57
2023-01-27T11:27:18.457Z,175.43
2023-01-27T11:28:18.402Z,177.53
2023-01-27T11:29:18.495Z,180.15
2023-01-27T11:30:18.698Z,181.67
2023-01-27T11:31:18.395Z,181.49
2023-01-27T11:32:18.291Z,183.53
2023-01-27T11:33:18.241Z,181.83
2023-01-27T11:34:18.154Z,181.89
2023-01-27T11:35:18.308Z,181.12
2023-01-27T11:36:18.105Z,177.42
2023-01-27T11:37:18.238Z,182.37
2023-01-27T11:38:18.036Z,181.96
2023-01-27T11:39:18.794Z,184.11
2023-01-27T11:40:17.918Z,190.15
2023-01-27T11:41:17.881Z,193.07
2023-01-27T11:42:17.845Z,193.87
2023-01-27T11:44:17.751Z,195.11
2023-01-27T11:45:17.732Z,197.93
2023-01-27T11:46:17.691Z,197.47
2023-01-27T11:47:17.605Z,197.08
2023-01-27T11:48:17.767Z,197.41
2023-01-27T11:49:17.524Z,195.75
2023-01-27T11:50:17.514Z,195.27
2023-01-27T11:51:17.458Z,197.10
2023-01-27T11:52:17.406Z,198.18
2023-01-27T11:53:17.440Z,198.99
2023-01-27T11:54:17.321Z,196.53
2023-01-27T11:55:17.253Z,197.77
2023-01-27T11:56:17.446Z,198.44
2023-01-27T11:57:17.226Z,201.30
2023-01-27T11:58:17.139Z,198.75
2023-01-27T11:59:17.132Z,196.79
2023-01-27T12:00:17.206Z,196.21
2023-01-27T12:01:17.683Z,194.99
2023-01-27T12:02:17.021Z,193.97
2023-01-27T12:03:17.377Z,191.87
2023-01-27T12:04:20.199Z,187.20
2023-01-27T12:05:19.372Z,187.40
2023-01-27T12:06:17.807Z,187.42
2023-01-27T12:07:18.141Z,187.73
2023-01-27T12:08:16.790Z,186.96
2023-01-27T12:09:16.935Z,189.69
2023-01-27T12:10:19.945Z,187.80
2023-01-27T12:11:16.828Z,191.43
2023-01-27T12:12:16.642Z,192.54
2023-01-27T12:13:16.606Z,188.87
2023-01-27T12:14:16.742Z,188.59
2023-01-27T12:15:16.527Z,171.55
2023-01-27T12:16:16.612Z,168.87
2023-01-27T12:17:16.547Z,167.70
2023-01-27T12:18:16.457Z,170.91
2023-01-27T12:19:16.395Z,162.43
2023-01-27T12:20:16.504Z,160.87
2023-01-27T12:21:16.348Z,159.95
2023-01-27T12:22:16.373Z,157.08
2023-01-27T12:23:16.209Z,158.88
2023-01-27T12:24:16.188Z,167.00
2023-01-27T12:25:16.123Z,172.97
2023-01-27T12:26:16.155Z,161.61
2023-01-27T12:27:16.060Z,167.43
2023-01-27T12:28:16.730Z,162.88
2023-01-27T12:29:15.947Z,169.83
2023-01-27T12:30:16.265Z,170.06
2023-01-27T12:31:16.060Z,167.56
2023-01-27T12:32:15.893Z,164.87
2023-01-27T12:33:15.789Z,165.26
2023-01-27T12:34:15.787Z,165.98
2023-01-27T12:35:15.738Z,168.54
2023-01-27T12:36:15.666Z,172.76
2023-01-27T12:37:15.647Z,180.63
2023-01-27T12:38:15.603Z,183.21
2023-01-27T12:39:15.561Z,179.49
2023-01-27T12:40:15.818Z,177.10
2023-01-27T12:41:15.480Z,175.98
2023-01-27T12:42:15.426Z,181.04
2023-01-27T12:43:15.362Z,183.10
2023-01-27T12:44:15.345Z,179.09
2023-01-27T12:45:15.333Z,173.46
2023-01-27T12:46:15.288Z,177.47
2023-01-27T12:47:15.255Z,173.02
2023-01-27T12:48:15.207Z,174.32
2023-01-27T12:49:15.149Z,175.18
2023-01-27T12:50:15.596Z,178.50
2023-01-27T12:51:15.077Z,178.70
2023-01-27T12:52:15.063Z,174.10
2023-01-27T12:53:15.044Z,170.22
2023-01-27T12:54:14.986Z,165.10
2023-01-27T12:55:14.997Z,165.73
2023-01-27T12:56:14.903Z,166.70
2023-01-27T12:57:14.856Z,164.70
2023-01-27T12:58:14.799Z,165.65
2023-01-27T12:59:14.764Z,159.06
2023-01-27T13:00:15.084Z,159.50
2023-01-27T13:01:14.704Z,160.53
2023-01-27T14:24:11.346Z,143.99
2023-01-27T14:25:11.230Z,142.80
2023-01-27T14:26:11.258Z,142.23
2023-01-27T14:27:11.168Z,143.10
2023-01-27T14:28:11.131Z,143.03
2023-01-27T14:30:11.052Z,142.27
2023-01-27T14:31:11.136Z,141.72
2023-01-27T14:32:11.001Z,145.40
2023-01-27T14:33:10.965Z,144.69
2023-01-27T14:34:10.915Z,145.53
2023-01-27T14:35:10.876Z,144.15
2023-01-27T14:36:10.839Z,144.42
2023-01-27T14:37:10.824Z,141.76
2023-01-27T14:38:10.746Z,143.17
2023-01-27T14:39:10.738Z,143.16
2023-01-27T14:40:10.702Z,144.60
2023-01-27T14:41:10.653Z,143.49
2023-01-27T14:42:10.603Z,143.81
2023-01-27T14:43:10.552Z,143.70
2023-01-27T14:44:10.531Z,144.31
2023-01-27T14:45:10.473Z,141.41
2023-01-27T14:46:10.428Z,141.01
2023-01-27T14:47:10.444Z,142.50
2023-01-27T14:48:10.398Z,141.63
2023-01-27T14:49:10.349Z,141.99
2023-01-27T14:50:10.301Z,142.18
2023-01-27T14:51:10.303Z,139.83
2023-01-27T14:52:10.305Z,141.94
2023-01-27T14:53:10.228Z,140.49
2023-01-27T14:54:10.177Z,141.99
2023-01-27T14:55:10.123Z,141.31
2023-01-27T14:56:10.081Z,143.17
2023-01-27T14:57:10.086Z,142.77
2023-01-27T14:58:10.032Z,143.70
2023-01-27T14:59:09.960Z,144.83
2023-01-27T15:00:09.955Z,144.78
2023-01-27T15:01:09.976Z,145.37
2023-01-27T15:02:09.956Z,146.05
2023-01-27T15:03:09.830Z,144.69
2023-01-27T15:04:09.803Z,144.54
2023-01-27T15:05:09.783Z,145.31
2023-01-27T15:06:09.736Z,144.19
2023-01-27T15:07:09.747Z,145.64
2023-01-27T15:08:09.642Z,144.41
2023-01-27T15:09:09.654Z,145.03
2023-01-27T15:10:09.600Z,145.03
2023-01-27T15:11:09.571Z,144.27
2023-01-27T15:12:09.569Z,145.39
2023-01-27T15:13:09.475Z,146.60
2023-01-27T15:14:09.435Z,145.07
2023-01-27T15:15:09.412Z,147.10
2023-01-27T15:16:10.331Z,145.18
2023-01-27T15:17:09.401Z,145.75
2023-01-27T15:18:09.330Z,146.37
2023-01-27T15:19:09.249Z,143.72
2023-01-27T15:20:09.227Z,145.82
2023-01-27T15:21:09.169Z,147.25
2023-01-27T15:22:09.172Z,145.49
2023-01-27T15:23:09.128Z,145.29
2023-01-27T15:24:09.119Z,145.59
2023-01-27T15:25:09.036Z,145.14
2023-01-27T15:26:09.048Z,145.37
2023-01-27T15:27:09.066Z,145.90
2023-01-27T15:28:08.953Z,145.49
2023-01-27T15:29:08.898Z,145.81
2023-01-27T15:30:08.864Z,143.88
2023-01-27T15:31:09.032Z,144.54
2023-01-27T15:32:08.911Z,145.12
2023-01-27T15:33:08.772Z,146.10
2023-01-27T15:34:08.749Z,147.36
2023-01-27T15:35:08.695Z,144.54
2023-01-27T15:36:08.649Z,142.97
2023-01-27T15:37:08.646Z,145.41
2023-01-27T15:38:08.614Z,144.19
2023-01-27T15:39:08.560Z,146.67
2023-01-27T15:40:08.584Z,144.03
2023-01-27T15:41:08.471Z,145.06
2023-01-27T15:42:08.426Z,143.86
2023-01-27T15:43:08.374Z,143.89
2023-01-27T15:44:08.337Z,141.09
2023-01-27T15:45:08.342Z,143.75
2023-01-27T15:46:08.390Z,144.79
2023-01-27T15:47:08.292Z,143.93
2023-01-27T15:48:08.276Z,141.77
2023-01-27T15:49:08.167Z,143.55
2023-01-27T15:50:08.170Z,144.38
2023-01-27T15:51:08.132Z,143.26
2023-01-27T15:52:08.082Z,143.85
2023-01-27T15:53:08.418Z,143.54
2023-01-27T15:54:07.988Z,142.02
2023-01-27T15:55:07.937Z,144.04
2023-01-27T15:56:07.920Z,142.98
2023-01-27T15:57:07.910Z,140.70
2023-01-27T15:58:07.871Z,140.49
2023-01-27T15:59:07.822Z,142.97
2023-01-27T16:00:07.827Z,141.84
2023-01-27T16:01:07.812Z,141.63
2023-01-27T16:02:07.762Z,140.73
2023-01-27T16:03:07.736Z,143.69
2023-01-27T16:04:07.652Z,141.63
2023-01-27T16:05:07.652Z,140.42
2023-01-27T16:06:07.602Z,142.42
2023-01-27T16:07:07.571Z,142.62
2023-01-27T16:08:07.572Z,144.33
2023-01-27T16:09:07.516Z,140.70
2023-01-27T16:10:07.484Z,141.47
2023-01-27T16:11:07.429Z,143.30
2023-01-27T16:12:07.395Z,141.05
2023-01-27T16:13:07.395Z,142.49
2023-01-27T16:14:07.320Z,141.14
2023-01-27T16:15:07.282Z,141.55
2023-01-27T16:16:07.271Z,141.19
2023-01-27T16:17:07.220Z,140.97
2023-01-27T16:18:07.208Z,139.48
2023-01-27T16:19:08.601Z,140.38
2023-01-27T16:20:07.116Z,140.40
2023-01-27T16:21:07.111Z,140.79
2023-01-27T16:22:07.043Z,141.39
2023-01-27T16:23:07.093Z,139.95
2023-01-27T16:24:07.034Z,138.48
2023-01-27T16:25:06.956Z,139.54
2023-01-27T16:26:06.961Z,140.12
2023-01-27T16:27:06.905Z,141.10
2023-01-27T16:28:06.873Z,138.27
2023-01-27T16:29:06.829Z,137.96
2023-01-27T16:30:06.787Z,137.99
2023-01-27T16:31:06.785Z,139.61
2023-01-27T16:32:06.861Z,139.41
2023-01-27T16:33:06.810Z,137.39
2023-01-27T16:34:06.666Z,141.09
2023-01-27T16:35:06.615Z,140.17
2023-01-27T16:36:06.579Z,138.56
2023-01-27T16:37:06.567Z,138.52
2023-01-27T16:38:06.540Z,138.59
2023-01-27T16:39:06.998Z,137.74
2023-01-27T16:40:06.453Z,139.16
2023-01-27T16:41:06.419Z,142.55
2023-01-27T16:42:06.402Z,137.22
2023-01-27T16:43:06.359Z,142.26
2023-01-27T16:44:06.312Z,135.96
2023-01-27T16:45:06.258Z,138.72
2023-01-27T16:46:06.264Z,140.37
2023-01-27T16:47:16.456Z,137.88
2023-01-27T16:48:07.163Z,138.14
2023-01-27T16:49:06.158Z,138.11
2023-01-27T16:50:06.175Z,138.79
2023-01-27T16:51:06.090Z,141.74
2023-01-27T16:52:06.058Z,138.23
2023-01-27T16:53:06.005Z,136.41
2023-01-27T16:54:05.970Z,136.29
2023-01-27T16:55:05.917Z,135.42
2023-01-27T16:56:05.895Z,136.84
2023-01-27T16:57:05.887Z,135.83
2023-01-27T16:58:05.843Z,138.08
2023-01-27T16:59:05.825Z,135.59
2023-01-27T17:00:05.772Z,135.36
2023-01-27T17:01:05.816Z,139.88
2023-01-27T17:02:05.702Z,137.19
2023-01-27T17:03:05.690Z,137.46
2023-01-27T17:04:19.152Z,137.30
2023-01-27T17:06:05.581Z,137.79
2023-01-27T17:07:05.565Z,139.31
2023-01-27T17:08:05.493Z,137.89
2023-01-27T17:09:05.498Z,137.76
2023-01-27T17:10:05.423Z,135.82
2023-01-27T17:11:05.407Z,138.49
2023-01-27T17:12:05.368Z,133.70
2023-01-27T17:13:05.341Z,139.83
2023-01-27T17:14:05.332Z,140.05
2023-01-27T17:15:05.265Z,139.64
2023-01-27T17:16:05.245Z,139.82
2023-01-27T17:17:05.220Z,139.66
2023-01-27T17:18:05.145Z,138.64
2023-01-27T17:19:05.147Z,135.65
2023-01-27T17:20:05.110Z,136.18
2023-01-27T17:21:05.056Z,138.42
2023-01-27T17:22:05.003Z,132.83
2023-01-27T17:23:04.984Z,137.21
2023-01-27T17:24:05.001Z,135.70
2023-01-27T17:25:04.921Z,135.30
2023-01-27T17:26:04.889Z,135.63
2023-01-27T17:27:04.845Z,131.64
2023-01-27T17:28:04.803Z,133.42
2023-01-27T17:29:04.798Z,135.50
2023-01-27T17:30:04.739Z,134.53
2023-01-27T17:31:07.168Z,138.04
2023-01-27T17:32:04.806Z,140.07
2023-01-27T21:14:56.955Z,116.67
2023-01-27T21:15:56.931Z,116.79
2023-01-27T21:16:56.980Z,116.88
2023-01-27T21:17:56.873Z,116.89
2023-01-27T21:18:56.846Z,116.55
2023-01-27T21:19:56.804Z,111.05
2023-01-27T21:20:56.774Z,113.15
2023-01-27T21:21:56.741Z,114.68
2023-01-27T21:22:56.709Z,114.14
2023-01-27T21:23:56.722Z,109.79
2023-01-27T21:24:56.654Z,110.60
2023-01-27T21:25:56.623Z,114.51
2023-01-27T21:26:56.572Z,115.47
2023-01-27T21:27:56.546Z,111.73
2023-01-27T21:28:56.562Z,107.14
2023-01-27T21:29:56.469Z,111.24
2023-01-27T21:30:56.571Z,107.60
2023-01-27T21:31:56.449Z,112.11
2023-01-27T21:32:56.381Z,114.38
2023-01-27T21:33:56.352Z,113.04
2023-01-27T21:34:56.318Z,114.45
2023-01-27T21:35:56.266Z,113.72
2023-01-27T21:36:56.233Z,114.54
2023-01-27T21:37:56.225Z,109.16
2023-01-27T21:38:56.182Z,108.27
2023-01-27T21:39:56.150Z,112.43
2023-01-27T21:40:56.128Z,109.26
2023-01-27T21:41:56.104Z,110.10
2023-01-27T21:42:56.069Z,110.58
2023-01-27T21:43:56.034Z,112.19
2023-01-27T21:44:55.986Z,112.07
2023-01-27T21:45:55.970Z,108.64
2023-01-27T21:46:55.999Z,104.93
2023-01-27T21:47:55.966Z,110.04
2023-01-27T21:48:55.902Z,108.86
2023-01-27T21:49:55.853Z,112.29
2023-01-27T21:50:56.019Z,110.83
2023-01-27T21:51:55.802Z,114.52
2023-01-27T21:52:55.816Z,112.66
2023-01-27T21:53:55.771Z,105.58
2023-01-27T21:54:55.739Z,113.15
2023-01-27T21:55:55.735Z,112.39
2023-01-27T21:56:55.702Z,106.05
2023-01-27T21:57:55.685Z,109.00
2023-01-27T21:58:55.651Z,107.70
2023-01-27T21:59:55.615Z,108.69
2023-01-27T22:00:55.617Z,107.67
2023-01-27T22:01:55.556Z,107.80
2023-01-27T22:02:55.554Z,112.77
2023-01-27T22:03:55.522Z,109.58
2023-01-27T22:04:55.532Z,111.11
2023-01-27T22:05:55.425Z,108.77
2023-01-27T22:06:55.414Z,110.10
2023-01-27T22:07:55.391Z,107.49
2023-01-27T22:08:55.348Z,110.57
2023-01-27T22:09:55.332Z,103.55
2023-01-27T22:10:55.322Z,107.33
2023-01-27T22:11:55.280Z,112.30
2023-01-27T22:12:55.265Z,107.17
2023-01-27T22:13:55.224Z,107.62
2023-01-27T22:14:55.184Z,103.54
2023-01-27T22:15:55.143Z,106.27
2023-01-27T22:16:55.121Z,110.29
2023-01-27T22:17:55.145Z,109.48
2023-01-27T22:18:55.098Z,106.72
2023-01-27T22:19:55.060Z,107.31
2023-01-27T22:20:55.040Z,110.10
2023-01-27T22:21:54.996Z,111.33
2023-01-27T22:22:54.990Z,110.51
2023-01-27T22:23:55.048Z,111.84
2023-01-27T22:24:54.901Z,111.88
2023-01-27T22:25:54.914Z,112.05
2023-01-27T22:26:54.869Z,106.85
2023-01-27T22:27:54.855Z,111.34
2023-01-27T22:28:54.821Z,110.47
2023-01-27T22:29:54.756Z,105.63
2023-01-27T22:30:54.757Z,105.68
2023-01-27T22:31:54.694Z,104.70
2023-01-27T22:33:54.661Z,108.71
